createdAt,value
2023-09-30T00:00:46.225Z,5.70
2023-09-30T00:01:49.225Z,6.13
2023-09-30T00:02:51.951Z,5.93
2023-09-30T00:03:55.035Z,6.20
2023-09-30T00:04:57.550Z,5.80
2023-09-30T00:06:00.574Z,6.32
2023-09-30T00:07:02.837Z,6.18
2023-09-30T00:08:05.911Z,6.35
2023-09-30T00:09:08.706Z,6.38
2023-09-30T00:10:11.739Z,6.28
2023-09-30T00:11:18.158Z,6.68
2023-09-30T00:12:20.631Z,6.20
2023-09-30T00:13:22.996Z,7.35
2023-09-30T00:14:25.477Z,5.82
2023-09-30T00:15:27.891Z,6.05
2023-09-30T00:16:30.408Z,5.80
2023-09-30T00:17:32.939Z,6.65
2023-09-30T00:18:35.450Z,6.95
2023-09-30T00:19:38.367Z,6.50
2023-09-30T00:20:41.390Z,5.97
2023-09-30T00:21:43.865Z,6.32
2023-09-30T00:22:46.289Z,5.78
2023-09-30T00:23:48.657Z,6.07
2023-09-30T00:24:51.009Z,7.03
2023-09-30T00:25:53.450Z,6.72
2023-09-30T00:26:55.983Z,6.30
2023-09-30T00:27:58.722Z,6.28
2023-09-30T00:29:01.094Z,6.47
2023-09-30T00:30:04.422Z,5.78
2023-09-30T00:31:12.793Z,6.70
2023-09-30T00:32:15.399Z,6.50
2023-09-30T00:33:17.851Z,6.32
2023-09-30T00:34:20.247Z,7.40
2023-09-30T00:35:22.628Z,6.90
2023-09-30T00:36:25.471Z,6.28
2023-09-30T00:37:28.374Z,6.38
2023-09-30T00:38:30.651Z,6.90
2023-09-30T00:39:34.419Z,6.78
2023-09-30T00:40:37.059Z,6.53
2023-09-30T00:41:42.327Z,6.55
2023-09-30T00:42:44.739Z,6.57
2023-09-30T00:43:50.156Z,6.82
2023-09-30T00:44:52.516Z,6.78
2023-09-30T00:46:06.605Z,6.25
2023-09-30T00:47:10.486Z,6.65
2023-09-30T00:48:13.106Z,6.65
2023-09-30T00:49:15.797Z,6.35
2023-09-30T00:50:18.240Z,6.93
2023-09-30T00:51:20.973Z,6.47
2023-09-30T00:52:23.847Z,6.30
2023-09-30T00:53:26.705Z,6.70
2023-09-30T00:54:30.303Z,5.60
2023-09-30T00:55:32.808Z,6.28
2023-09-30T00:56:35.537Z,7.10
2023-09-30T00:57:39.522Z,5.78
2023-09-30T00:58:41.887Z,6.30
2023-09-30T00:59:44.415Z,6.22
2023-09-30T01:00:47.400Z,6.20
2023-09-30T01:01:50.140Z,6.70
2023-09-30T01:02:54.368Z,6.20
2023-09-30T01:03:57.355Z,6.57
2023-09-30T01:05:00.153Z,6.97
2023-09-30T01:06:02.729Z,6.68
2023-09-30T01:07:06.279Z,6.55
2023-09-30T01:08:08.855Z,6.65
2023-09-30T01:09:11.439Z,6.40
2023-09-30T01:10:13.934Z,6.47
2023-09-30T01:11:16.724Z,6.78
2023-09-30T01:12:19.566Z,6.10
2023-09-30T01:13:21.943Z,6.47
2023-09-30T01:14:32.682Z,7.15
2023-09-30T01:15:35.815Z,5.85
2023-09-30T01:16:38.273Z,6.68
2023-09-30T01:17:40.872Z,6.13
2023-09-30T01:18:44.612Z,6.95
2023-09-30T01:19:48.092Z,6.28
2023-09-30T01:20:52.552Z,6.53
2023-09-30T01:22:01.586Z,7.50
2023-09-30T01:23:05.203Z,6.53
2023-09-30T01:24:07.987Z,7.22
2023-09-30T01:25:11.197Z,7.75
2023-09-30T01:26:14.738Z,6.50
2023-09-30T01:27:19.706Z,6.88
2023-09-30T01:28:22.350Z,6.45
2023-09-30T01:29:26.997Z,7.25
2023-09-30T01:30:29.557Z,6.72
2023-09-30T01:31:31.918Z,6.72
2023-09-30T01:32:34.504Z,6.05
2023-09-30T01:33:36.992Z,6.85
2023-09-30T01:34:39.315Z,6.93
2023-09-30T01:35:41.696Z,6.60
2023-09-30T01:36:45.107Z,6.80
2023-09-30T01:37:47.656Z,7.15
2023-09-30T01:38:50.187Z,6.95
2023-09-30T01:39:56.244Z,7.20
2023-09-30T01:41:01.130Z,7.10
2023-09-30T01:42:04.040Z,6.57
2023-09-30T01:43:09.449Z,6.72
2023-09-30T01:44:11.713Z,7.35
2023-09-30T01:45:14.497Z,7.18
2023-09-30T01:46:17.009Z,6.72
2023-09-30T01:47:19.369Z,6.70
2023-09-30T01:48:21.940Z,6.70
2023-09-30T01:49:25.548Z,6.53
2023-09-30T01:50:28.117Z,7.30
2023-09-30T01:51:31.151Z,6.68
2023-09-30T01:52:34.494Z,6.82
2023-09-30T01:53:37.490Z,7.00
2023-09-30T01:54:39.939Z,6.63
2023-09-30T01:55:42.341Z,6.75
2023-09-30T01:56:44.792Z,7.18
2023-09-30T01:57:47.640Z,6.55
2023-09-30T01:58:50.049Z,6.78
2023-09-30T01:59:53.049Z,7.10
2023-09-30T02:00:55.483Z,7.05
2023-09-30T02:01:59.266Z,6.82
2023-09-30T02:03:02.071Z,6.85
2023-09-30T02:04:08.117Z,6.82
2023-09-30T02:05:10.866Z,7.07
2023-09-30T02:06:13.397Z,7.28
2023-09-30T02:07:15.760Z,6.57
2023-09-30T02:08:19.582Z,7.32
2023-09-30T02:09:22.233Z,7.28
2023-09-30T02:10:24.594Z,7.10
2023-09-30T02:11:27.395Z,8.13
2023-09-30T02:12:30.288Z,7.57
2023-09-30T02:13:38.566Z,6.50
2023-09-30T02:14:41.156Z,6.57
2023-09-30T02:15:43.875Z,6.85
2023-09-30T02:16:46.226Z,6.47
2023-09-30T02:17:50.532Z,7.10
2023-09-30T02:18:53.177Z,6.88
2023-09-30T02:19:56.184Z,7.72
2023-09-30T02:21:00.842Z,7.03
2023-09-30T02:22:03.377Z,7.10
2023-09-30T02:23:07.247Z,7.35
2023-09-30T02:24:09.825Z,6.97
2023-09-30T02:25:13.899Z,7.35
2023-09-30T02:26:17.084Z,7.10
2023-09-30T02:27:19.467Z,6.55
2023-09-30T02:28:21.884Z,6.90
2023-09-30T02:29:24.168Z,7.80
2023-09-30T02:30:26.826Z,6.60
2023-09-30T02:31:29.197Z,6.90
2023-09-30T02:32:31.710Z,6.55
2023-09-30T02:33:40.327Z,6.38
2023-09-30T02:34:45.645Z,7.10
2023-09-30T02:35:48.134Z,7.80
2023-09-30T02:36:50.766Z,6.70
2023-09-30T02:37:53.652Z,6.80
2023-09-30T02:38:55.991Z,7.45
2023-09-30T02:39:58.822Z,8.18
2023-09-30T02:41:01.128Z,7.65
2023-09-30T02:42:03.587Z,7.40
2023-09-30T02:43:05.903Z,7.13
2023-09-30T02:44:08.125Z,8.60
2023-09-30T02:45:11.906Z,7.47
2023-09-30T02:46:14.635Z,7.55
2023-09-30T02:47:17.302Z,6.70
2023-09-30T02:48:19.754Z,7.35
2023-09-30T02:49:23.011Z,6.70
2023-09-30T02:50:25.327Z,7.47
2023-09-30T02:51:28.057Z,7.63
2023-09-30T02:52:32.814Z,7.32
2023-09-30T02:53:35.322Z,7.32
2023-09-30T02:54:37.716Z,7.05
2023-09-30T02:55:40.849Z,7.18
2023-09-30T02:56:43.200Z,8.15
2023-09-30T02:57:48.062Z,6.85
2023-09-30T02:58:50.497Z,7.70
2023-09-30T02:59:55.691Z,7.80
2023-09-30T03:00:58.183Z,7.30
2023-09-30T03:02:00.632Z,6.97
2023-09-30T03:03:04.058Z,7.32
2023-09-30T03:04:08.192Z,7.05
2023-09-30T03:05:11.674Z,7.25
2023-09-30T03:06:14.213Z,7.55
2023-09-30T03:07:17.233Z,7.18
2023-09-30T03:08:19.607Z,7.25
2023-09-30T03:09:21.974Z,6.93
2023-09-30T03:10:28.103Z,6.72
2023-09-30T03:11:31.302Z,8.13
2023-09-30T03:12:33.726Z,6.68
2023-09-30T03:13:36.291Z,6.95
2023-09-30T03:14:38.602Z,7.47
2023-09-30T03:15:40.947Z,7.03
2023-09-30T03:16:44.552Z,7.38
2023-09-30T03:17:47.680Z,6.72
2023-09-30T03:18:52.024Z,6.35
2023-09-30T03:19:55.352Z,6.88
2023-09-30T03:21:09.956Z,7.53
2023-09-30T03:22:12.975Z,7.32
2023-09-30T03:23:15.503Z,7.68
2023-09-30T03:24:17.945Z,8.00
2023-09-30T03:25:22.160Z,7.22
2023-09-30T03:26:25.028Z,6.85
2023-09-30T03:27:27.807Z,7.63
2023-09-30T03:28:30.287Z,7.10
2023-09-30T03:29:32.640Z,6.80
2023-09-30T03:30:35.830Z,7.07
2023-09-30T03:31:38.307Z,7.43
2023-09-30T03:32:41.324Z,6.78
2023-09-30T03:33:43.694Z,7.63
2023-09-30T03:34:47.489Z,6.45
2023-09-30T03:35:50.339Z,6.78
2023-09-30T03:36:52.801Z,7.47
2023-09-30T03:37:55.110Z,7.70
2023-09-30T03:39:00.101Z,7.30
2023-09-30T03:40:12.930Z,6.90
2023-09-30T03:41:15.315Z,6.95
2023-09-30T03:42:17.687Z,7.03
2023-09-30T03:43:20.316Z,6.68
2023-09-30T03:44:24.214Z,6.97
2023-09-30T03:45:26.816Z,6.93
2023-09-30T03:46:29.340Z,7.93
2023-09-30T03:47:32.920Z,7.13
2023-09-30T03:48:40.604Z,6.53
2023-09-30T03:49:46.386Z,7.28
2023-09-30T03:50:49.866Z,7.70
2023-09-30T03:51:55.015Z,8.02
2023-09-30T03:53:06.137Z,6.50
2023-09-30T03:54:09.907Z,7.53
2023-09-30T03:55:13.361Z,7.35
2023-09-30T03:56:15.619Z,7.78
2023-09-30T03:57:18.900Z,7.38
2023-09-30T03:58:21.254Z,7.90
2023-09-30T03:59:23.452Z,7.20
2023-09-30T04:00:25.964Z,7.43
2023-09-30T04:01:28.411Z,6.22
2023-09-30T04:02:30.968Z,7.47
2023-09-30T04:03:36.263Z,7.30
2023-09-30T04:04:38.750Z,7.63
2023-09-30T04:05:41.646Z,7.30
2023-09-30T04:06:44.138Z,6.85
2023-09-30T04:07:46.682Z,7.10
2023-09-30T04:08:48.983Z,7.82
2023-09-30T04:09:51.322Z,7.20
2023-09-30T04:10:53.764Z,7.38
2023-09-30T04:11:56.084Z,7.57
2023-09-30T04:12:58.542Z,6.88
2023-09-30T04:14:00.769Z,7.90
2023-09-30T04:15:05.090Z,7.15
2023-09-30T04:16:07.426Z,7.57
2023-09-30T04:17:10.644Z,7.10
2023-09-30T04:18:13.875Z,6.32
2023-09-30T04:19:16.684Z,7.78
2023-09-30T04:20:22.833Z,6.95
2023-09-30T04:21:25.314Z,6.80
2023-09-30T04:22:29.646Z,7.53
2023-09-30T04:23:31.880Z,7.32
2023-09-30T04:24:34.193Z,6.68
2023-09-30T04:25:36.667Z,7.50
2023-09-30T04:26:39.653Z,7.03
2023-09-30T04:27:43.872Z,7.40
2023-09-30T04:28:46.312Z,7.15
2023-09-30T04:29:50.766Z,7.72
2023-09-30T04:30:54.761Z,7.28
2023-09-30T04:31:58.199Z,6.97
2023-09-30T04:33:02.044Z,7.53
2023-09-30T04:34:05.912Z,7.07
2023-09-30T04:35:09.433Z,6.70
2023-09-30T04:36:12.577Z,7.25
2023-09-30T04:37:15.416Z,7.68
2023-09-30T04:38:17.869Z,6.70
2023-09-30T04:39:20.327Z,7.18
2023-09-30T04:40:23.153Z,7.55
2023-09-30T04:41:26.894Z,6.93
2023-09-30T04:42:29.531Z,6.97
2023-09-30T04:43:33.896Z,8.27
2023-09-30T04:44:38.356Z,7.30
2023-09-30T04:45:41.317Z,7.28
2023-09-30T04:46:47.368Z,7.82
2023-09-30T04:47:52.734Z,7.55
2023-09-30T04:48:55.118Z,7.30
2023-09-30T04:49:59.431Z,7.78
2023-09-30T04:51:05.888Z,6.95
2023-09-30T04:52:09.242Z,7.22
2023-09-30T04:53:11.632Z,7.72
2023-09-30T04:54:13.929Z,6.50
2023-09-30T04:55:17.786Z,6.82
2023-09-30T04:56:20.557Z,7.50
2023-09-30T04:57:23.093Z,7.47
2023-09-30T04:58:26.433Z,6.88
2023-09-30T04:59:29.678Z,7.05
2023-09-30T05:00:32.042Z,7.13
2023-09-30T05:01:34.603Z,6.57
2023-09-30T05:02:37.489Z,7.25
2023-09-30T05:03:40.222Z,7.28
2023-09-30T05:04:43.849Z,6.50
2023-09-30T05:05:46.196Z,6.90
2023-09-30T05:06:48.798Z,6.75
2023-09-30T05:07:51.381Z,7.20
2023-09-30T05:08:53.818Z,7.00
2023-09-30T05:09:56.275Z,7.22
2023-09-30T05:10:58.669Z,7.50
2023-09-30T05:12:01.003Z,6.47
2023-09-30T05:13:04.217Z,6.57
2023-09-30T05:14:06.642Z,6.93
2023-09-30T05:15:09.774Z,7.15
2023-09-30T05:16:14.721Z,6.93
2023-09-30T05:17:17.359Z,6.88
2023-09-30T05:18:19.946Z,6.53
2023-09-30T05:19:22.552Z,6.32
2023-09-30T05:20:25.601Z,6.93
2023-09-30T05:21:28.351Z,6.60
2023-09-30T05:22:31.217Z,6.68
2023-09-30T05:23:33.749Z,6.72
2023-09-30T05:24:36.588Z,7.30
2023-09-30T05:25:39.007Z,7.07
2023-09-30T05:26:41.356Z,6.47
2023-09-30T05:27:44.652Z,6.90
2023-09-30T05:28:47.553Z,6.22
2023-09-30T05:29:50.067Z,7.75
2023-09-30T05:30:52.604Z,7.68
2023-09-30T05:31:55.350Z,6.63
2023-09-30T05:32:57.825Z,6.38
2023-09-30T05:34:00.927Z,7.68
2023-09-30T05:35:06.587Z,6.93
2023-09-30T05:36:09.988Z,6.88
2023-09-30T05:37:13.696Z,6.88
2023-09-30T05:38:15.987Z,6.50
2023-09-30T05:39:21.194Z,6.97
2023-09-30T05:40:25.197Z,6.57
2023-09-30T05:41:27.750Z,6.93
2023-09-30T05:42:31.581Z,7.68
2023-09-30T05:43:33.848Z,6.50
2023-09-30T05:44:36.246Z,6.93
2023-09-30T05:45:38.565Z,6.63
2023-09-30T05:46:41.144Z,7.10
2023-09-30T05:47:43.634Z,6.43
2023-09-30T05:48:46.170Z,7.35
2023-09-30T05:49:48.478Z,7.20
2023-09-30T05:50:51.004Z,7.38
2023-09-30T05:51:53.502Z,5.82
2023-09-30T05:52:56.717Z,7.32
2023-09-30T05:53:59.544Z,6.97
2023-09-30T05:55:03.452Z,7.28
2023-09-30T05:56:05.760Z,6.72
2023-09-30T05:57:09.172Z,7.28
2023-09-30T05:58:14.328Z,7.55
2023-09-30T05:59:16.613Z,7.30
2023-09-30T06:00:30.417Z,7.25
2023-09-30T06:01:33.831Z,7.78
2023-09-30T06:02:38.246Z,6.38
2023-09-30T06:03:41.956Z,7.60
2023-09-30T06:04:44.640Z,6.95
2023-09-30T06:05:47.513Z,6.47
2023-09-30T06:06:50.032Z,6.43
2023-09-30T06:07:52.951Z,7.13
2023-09-30T06:08:55.432Z,7.15
2023-09-30T06:09:57.958Z,7.03
2023-09-30T06:11:00.398Z,6.88
2023-09-30T06:12:04.736Z,6.70
2023-09-30T06:13:07.025Z,6.60
2023-09-30T06:14:09.237Z,6.45
2023-09-30T06:15:11.802Z,6.38
2023-09-30T06:16:14.739Z,6.32
2023-09-30T06:17:17.067Z,6.53
2023-09-30T06:18:20.195Z,6.57
2023-09-30T06:19:22.616Z,7.05
2023-09-30T06:20:28.248Z,7.18
2023-09-30T06:21:31.487Z,6.07
2023-09-30T06:22:34.028Z,6.88
2023-09-30T06:23:36.885Z,6.38
2023-09-30T06:24:40.081Z,6.60
2023-09-30T06:25:43.564Z,7.13
2023-09-30T06:26:45.970Z,6.45
2023-09-30T06:27:49.374Z,6.60
2023-09-30T06:28:54.908Z,6.95
2023-09-30T06:29:57.231Z,7.55
2023-09-30T06:30:59.726Z,7.43
2023-09-30T06:32:02.246Z,7.35
2023-09-30T06:33:06.671Z,7.05
2023-09-30T06:34:12.454Z,6.55
2023-09-30T06:35:14.890Z,6.82
2023-09-30T06:36:17.797Z,7.63
2023-09-30T06:37:21.047Z,6.95
2023-09-30T06:38:23.616Z,6.95
2023-09-30T06:39:25.894Z,6.82
2023-09-30T06:40:28.669Z,6.90
2023-09-30T06:41:31.826Z,7.43
2023-09-30T06:42:34.236Z,6.40
2023-09-30T06:43:37.097Z,6.57
2023-09-30T06:44:39.487Z,6.47
2023-09-30T06:45:43.739Z,5.72
2023-09-30T06:46:46.327Z,6.68
2023-09-30T06:47:49.358Z,6.38
2023-09-30T06:48:53.447Z,6.63
2023-09-30T06:49:55.845Z,6.47
2023-09-30T06:51:00.199Z,6.78
2023-09-30T06:52:04.276Z,6.68
2023-09-30T06:53:07.604Z,6.55
2023-09-30T06:54:10.052Z,6.70
2023-09-30T06:55:15.813Z,6.15
2023-09-30T06:56:18.284Z,6.38
2023-09-30T06:57:20.921Z,6.25
2023-09-30T06:58:23.397Z,5.75
2023-09-30T06:59:26.386Z,7.03
2023-09-30T07:00:28.727Z,5.65
2023-09-30T07:01:31.118Z,6.97
2023-09-30T07:02:33.580Z,6.43
2023-09-30T07:03:35.998Z,7.57
2023-09-30T07:04:38.431Z,6.47
2023-09-30T07:05:41.498Z,6.60
2023-09-30T07:06:43.861Z,6.25
2023-09-30T07:07:46.922Z,6.32
2023-09-30T07:08:49.318Z,6.63
2023-09-30T07:09:54.570Z,7.07
2023-09-30T07:10:57.719Z,6.90
2023-09-30T07:12:00.069Z,7.88
2023-09-30T07:13:05.619Z,6.35
2023-09-30T07:14:07.919Z,6.75
2023-09-30T07:15:10.734Z,7.95
2023-09-30T07:16:13.208Z,6.47
2023-09-30T07:17:17.615Z,6.60
2023-09-30T07:18:20.307Z,7.28
2023-09-30T07:19:22.956Z,6.22
2023-09-30T07:20:25.330Z,7.07
2023-09-30T07:21:27.750Z,7.38
2023-09-30T07:23:35.539Z,6.90
2023-09-30T07:24:37.987Z,6.30
2023-09-30T07:25:40.856Z,6.20
2023-09-30T07:26:43.282Z,6.43
2023-09-30T07:27:49.216Z,6.97
2023-09-30T07:28:51.523Z,7.28
2023-09-30T07:29:53.864Z,6.47
2023-09-30T07:30:56.914Z,7.00
2023-09-30T07:31:59.365Z,7.30
2023-09-30T07:33:02.029Z,6.15
2023-09-30T07:34:04.487Z,6.68
2023-09-30T07:35:07.575Z,6.13
2023-09-30T07:36:09.872Z,6.40
2023-09-30T07:37:12.377Z,6.88
2023-09-30T07:38:14.726Z,6.80
2023-09-30T07:39:18.599Z,7.05
2023-09-30T07:40:22.464Z,6.50
2023-09-30T07:41:24.901Z,7.15
2023-09-30T07:42:27.401Z,6.60
2023-09-30T07:43:30.084Z,6.82
2023-09-30T07:44:33.225Z,6.65
2023-09-30T07:45:35.834Z,7.72
2023-09-30T07:46:38.308Z,6.32
2023-09-30T07:47:40.724Z,7.18
2023-09-30T07:48:43.425Z,7.13
2023-09-30T07:49:46.073Z,6.90
2023-09-30T07:50:48.606Z,6.22
2023-09-30T07:51:51.201Z,7.07
2023-09-30T07:52:53.590Z,6.53
2023-09-30T07:53:55.944Z,7.47
2023-09-30T07:54:58.308Z,7.65
2023-09-30T07:56:00.630Z,6.68
2023-09-30T07:57:03.182Z,6.90
2023-09-30T07:58:05.685Z,7.03
2023-09-30T07:59:08.050Z,6.32
2023-09-30T08:00:16.409Z,7.25
2023-09-30T08:01:19.491Z,7.03
2023-09-30T08:02:23.849Z,7.22
2023-09-30T08:03:26.224Z,6.72
2023-09-30T08:04:28.645Z,6.88
2023-09-30T08:05:31.101Z,7.40
2023-09-30T08:06:33.603Z,7.68
2023-09-30T08:07:36.109Z,8.02
2023-09-30T08:08:38.568Z,7.35
2023-09-30T08:09:41.214Z,8.00
2023-09-30T08:10:44.316Z,8.35
2023-09-30T08:11:47.114Z,7.30
2023-09-30T08:12:51.253Z,7.88
2023-09-30T08:13:53.560Z,7.22
2023-09-30T08:14:56.236Z,7.30
2023-09-30T08:15:58.679Z,9.02
2023-09-30T08:17:01.080Z,9.07
2023-09-30T08:18:07.426Z,8.38
2023-09-30T08:19:10.318Z,8.13
2023-09-30T08:20:12.873Z,7.68
2023-09-30T08:21:15.252Z,7.93
2023-09-30T08:22:17.612Z,7.85
2023-09-30T08:23:20.007Z,8.02
2023-09-30T08:24:22.372Z,8.07
2023-09-30T08:25:25.045Z,8.05
2023-09-30T08:26:27.584Z,8.70
2023-09-30T08:27:30.297Z,7.65
2023-09-30T08:28:33.403Z,8.15
2023-09-30T08:29:39.405Z,8.30
2023-09-30T08:30:41.779Z,7.88
2023-09-30T08:31:44.058Z,8.02
2023-09-30T08:32:47.985Z,7.90
2023-09-30T08:33:50.593Z,8.00
2023-09-30T08:34:53.206Z,7.05
2023-09-30T08:35:55.514Z,7.65
2023-09-30T08:36:58.354Z,7.97
2023-09-30T08:38:00.940Z,8.27
2023-09-30T08:39:03.447Z,7.40
2023-09-30T08:40:06.827Z,7.38
2023-09-30T08:41:09.518Z,7.90
2023-09-30T08:42:12.758Z,7.30
2023-09-30T08:43:16.454Z,7.63
2023-09-30T08:44:19.138Z,7.72
2023-09-30T08:45:23.238Z,7.30
2023-09-30T08:46:26.150Z,7.72
2023-09-30T08:47:32.083Z,8.00
2023-09-30T08:48:35.432Z,7.78
2023-09-30T08:49:42.438Z,8.73
2023-09-30T08:50:45.485Z,8.80
2023-09-30T08:51:50.549Z,8.27
2023-09-30T08:52:53.978Z,8.32
2023-09-30T08:53:57.492Z,8.32
2023-09-30T08:54:59.798Z,8.52
2023-09-30T08:56:05.577Z,8.48
2023-09-30T08:57:10.987Z,7.97
2023-09-30T08:58:16.824Z,8.15
2023-09-30T08:59:19.147Z,8.07
2023-09-30T09:00:22.336Z,8.30
2023-09-30T09:01:28.463Z,7.95
2023-09-30T09:02:30.986Z,8.38
2023-09-30T09:03:33.606Z,8.63
2023-09-30T09:04:36.527Z,9.10
2023-09-30T09:05:39.008Z,8.25
2023-09-30T09:06:42.589Z,8.15
2023-09-30T09:07:45.122Z,8.90
2023-09-30T09:08:48.361Z,9.38
2023-09-30T09:10:15.147Z,8.27
2023-09-30T09:11:18.705Z,8.88
2023-09-30T09:12:21.574Z,9.15
2023-09-30T09:13:24.944Z,9.10
2023-09-30T09:14:40.955Z,8.65
2023-09-30T09:15:43.430Z,8.60
2023-09-30T09:16:58.411Z,8.38
2023-09-30T09:18:01.008Z,8.48
2023-09-30T09:19:18.874Z,8.25
2023-09-30T09:20:23.825Z,8.10
2023-09-30T09:21:28.689Z,8.43
2023-09-30T09:22:41.545Z,8.50
2023-09-30T09:23:48.088Z,8.38
2023-09-30T09:24:53.009Z,8.38
2023-09-30T09:25:56.848Z,7.57
2023-09-30T09:27:10.279Z,8.25
2023-09-30T09:28:12.707Z,8.50
2023-09-30T09:29:16.033Z,7.75
2023-09-30T09:30:40.143Z,7.70
2023-09-30T09:31:42.618Z,8.07
2023-09-30T09:33:00.471Z,7.63
2023-09-30T09:34:04.593Z,6.30
2023-09-30T09:35:08.845Z,5.93
2023-09-30T09:36:11.210Z,6.45
2023-09-30T09:37:21.581Z,5.57
2023-09-30T09:38:23.985Z,6.22
2023-09-30T09:39:32.381Z,5.47
2023-09-30T09:40:36.870Z,5.97
2023-09-30T09:41:52.976Z,5.22
2023-09-30T09:42:57.155Z,5.35
2023-09-30T09:44:00.647Z,4.72
2023-09-30T09:45:04.968Z,4.75
2023-09-30T09:46:09.388Z,4.28
2023-09-30T09:47:12.174Z,3.90
2023-09-30T09:48:15.065Z,3.67
2023-09-30T09:49:21.507Z,2.92
2023-09-30T09:50:24.351Z,3.67
2023-09-30T09:51:27.972Z,3.20
2023-09-30T09:52:30.595Z,2.60
2023-09-30T09:53:38.220Z,2.72
2023-09-30T09:54:44.054Z,2.60
2023-09-30T09:55:47.319Z,2.72
2023-09-30T09:56:50.374Z,2.67
2023-09-30T09:57:53.195Z,2.33
2023-09-30T09:58:55.889Z,2.10
2023-09-30T10:00:00.340Z,2.10
2023-09-30T10:01:03.836Z,1.98
2023-09-30T10:02:12.949Z,1.92
2023-09-30T10:03:15.587Z,1.88
2023-09-30T10:04:18.661Z,1.73
2023-09-30T10:05:22.094Z,1.50
2023-09-30T10:06:25.713Z,2.10
2023-09-30T10:07:32.412Z,1.80
2023-09-30T10:08:40.690Z,1.40
2023-09-30T10:09:53.194Z,2.05
2023-09-30T10:10:59.292Z,1.70
2023-09-30T10:12:02.463Z,1.50
2023-09-30T10:13:05.423Z,1.60
2023-09-30T10:14:13.438Z,1.52
2023-09-30T10:15:28.027Z,1.55
2023-09-30T10:16:36.771Z,1.50
2023-09-30T10:18:00.090Z,1.70
2023-09-30T10:19:30.776Z,1.27
2023-09-30T10:20:34.264Z,1.60
2023-09-30T10:21:36.917Z,1.60
2023-09-30T10:22:42.163Z,1.40
2023-09-30T10:23:44.457Z,1.40
2023-09-30T10:24:48.044Z,1.20
2023-09-30T10:25:52.585Z,1.33
2023-09-30T10:27:25.375Z,1.20
2023-09-30T10:28:34.878Z,1.30
2023-09-30T10:29:43.537Z,1.58
2023-09-30T10:31:14.162Z,1.75
2023-09-30T10:32:19.269Z,2.22
2023-09-30T10:33:21.817Z,1.95
2023-09-30T10:34:25.365Z,2.30
2023-09-30T10:35:33.663Z,2.20
2023-09-30T10:36:42.120Z,2.00
2023-09-30T10:37:48.258Z,1.67
2023-09-30T10:38:51.431Z,1.95
2023-09-30T10:39:58.680Z,1.92
2023-09-30T10:41:03.606Z,1.80
2023-09-30T10:42:06.259Z,1.73
2023-09-30T10:43:34.571Z,2.05
2023-09-30T10:44:38.688Z,1.80
2023-09-30T10:45:44.647Z,1.52
2023-09-30T10:46:47.010Z,1.45
2023-09-30T10:47:49.484Z,1.92
2023-09-30T10:48:52.669Z,1.40
2023-09-30T10:49:55.007Z,1.83
2023-09-30T10:51:02.091Z,1.55
2023-09-30T10:52:05.318Z,1.70
2023-09-30T10:53:08.688Z,1.63
2023-09-30T10:54:11.654Z,1.58
2023-09-30T10:55:20.272Z,1.80
2023-09-30T10:56:23.257Z,2.03
2023-09-30T10:57:31.465Z,1.58
2023-09-30T10:58:53.602Z,1.70
2023-09-30T11:00:25.411Z,1.73
2023-09-30T11:01:34.364Z,1.67
2023-09-30T11:02:37.454Z,1.80
2023-09-30T11:03:40.950Z,1.75
2023-09-30T11:04:49.407Z,1.92
2023-09-30T11:06:11.740Z,2.28
2023-09-30T11:07:20.601Z,1.60
2023-09-30T11:08:24.311Z,1.98
2023-09-30T11:09:27.687Z,2.35
2023-09-30T11:10:29.975Z,2.10
2023-09-30T11:11:39.221Z,2.40
2023-09-30T11:12:56.946Z,2.05
2023-09-30T11:13:59.795Z,1.80
2023-09-30T11:15:03.989Z,2.45
2023-09-30T11:16:06.773Z,2.20
2023-09-30T11:17:09.357Z,1.77
2023-09-30T11:18:19.264Z,2.13
2023-09-30T11:19:22.910Z,2.63
2023-09-30T11:20:25.470Z,2.00
2023-09-30T11:21:27.946Z,2.33
2023-09-30T11:22:30.256Z,2.40
2023-09-30T11:23:33.469Z,1.73
2023-09-30T11:24:38.678Z,2.13
2023-09-30T11:25:42.424Z,2.15
2023-09-30T11:26:46.210Z,1.90
2023-09-30T11:27:48.662Z,1.90
2023-09-30T11:28:51.123Z,2.45
2023-09-30T11:29:53.640Z,1.80
2023-09-30T11:30:57.404Z,2.58
2023-09-30T11:32:00.082Z,2.20
2023-09-30T11:33:02.746Z,2.33
2023-09-30T11:34:05.511Z,2.00
2023-09-30T11:35:12.649Z,2.03
2023-09-30T11:36:15.990Z,2.30
2023-09-30T11:37:18.859Z,2.08
2023-09-30T11:38:21.358Z,1.52
2023-09-30T11:39:28.544Z,2.03
2023-09-30T11:40:31.057Z,1.95
2023-09-30T11:41:39.404Z,1.80
2023-09-30T11:42:43.357Z,2.15
2023-09-30T11:44:03.130Z,1.80
2023-09-30T11:45:25.439Z,1.50
2023-09-30T11:46:29.095Z,2.25
2023-09-30T11:47:32.398Z,2.60
2023-09-30T11:48:34.767Z,1.75
2023-09-30T11:49:40.584Z,2.35
2023-09-30T11:50:47.588Z,3.03
2023-09-30T11:51:50.061Z,1.95
2023-09-30T11:52:52.486Z,2.40
2023-09-30T11:53:55.748Z,2.15
2023-09-30T11:54:58.845Z,2.63
2023-09-30T11:56:03.835Z,2.33
2023-09-30T11:57:06.179Z,1.90
2023-09-30T11:58:11.000Z,2.10
2023-09-30T11:59:13.199Z,2.30
2023-09-30T12:00:15.804Z,2.25
2023-09-30T12:01:18.212Z,2.05
2023-09-30T12:02:20.953Z,2.20
2023-09-30T12:03:23.481Z,1.67
2023-09-30T12:04:26.378Z,2.33
2023-09-30T12:05:30.250Z,1.95
2023-09-30T12:06:32.663Z,2.22
2023-09-30T12:07:34.980Z,2.50
2023-09-30T12:08:38.940Z,2.03
2023-09-30T12:09:41.945Z,2.33
2023-09-30T12:10:45.343Z,1.95
2023-09-30T12:11:48.056Z,1.95
2023-09-30T12:12:51.519Z,2.45
2023-09-30T12:13:54.304Z,2.30
2023-09-30T12:14:56.760Z,2.30
2023-09-30T12:15:59.169Z,1.85
2023-09-30T12:17:01.933Z,1.80
2023-09-30T12:18:06.644Z,2.58
2023-09-30T12:19:10.267Z,2.20
2023-09-30T12:20:16.346Z,1.75
2023-09-30T12:21:21.622Z,2.15
2023-09-30T12:22:24.048Z,1.95
2023-09-30T12:23:26.808Z,2.25
2023-09-30T12:24:29.049Z,2.35
2023-09-30T12:25:31.324Z,2.53
2023-09-30T12:26:33.778Z,2.63
2023-09-30T12:27:36.238Z,2.50
2023-09-30T12:28:38.878Z,1.90
2023-09-30T12:29:41.759Z,2.13
2023-09-30T12:30:44.682Z,2.20
2023-09-30T12:32:56.613Z,2.38
2023-09-30T12:33:58.993Z,1.80
2023-09-30T12:35:02.084Z,2.28
2023-09-30T12:36:04.734Z,2.00
2023-09-30T12:37:08.685Z,2.35
2023-09-30T12:38:12.101Z,2.67
2023-09-30T12:39:14.425Z,1.98
2023-09-30T12:40:18.131Z,1.73
2023-09-30T12:41:20.635Z,2.42
2023-09-30T12:42:23.058Z,2.45
2023-09-30T12:43:26.273Z,2.42
2023-09-30T12:44:28.628Z,1.90
2023-09-30T12:45:31.547Z,2.10
2023-09-30T12:46:36.136Z,2.17
2023-09-30T12:47:38.578Z,1.83
2023-09-30T12:48:43.437Z,2.13
2023-09-30T12:49:45.903Z,2.00
2023-09-30T12:50:48.826Z,2.13
2023-09-30T12:51:51.395Z,2.10
2023-09-30T12:52:53.688Z,1.77
2023-09-30T12:53:56.046Z,2.53
2023-09-30T12:54:58.476Z,1.77
2023-09-30T12:56:01.616Z,2.53
2023-09-30T12:57:04.057Z,2.30
2023-09-30T12:58:06.566Z,2.15
2023-09-30T12:59:09.138Z,2.10
2023-09-30T13:00:11.926Z,2.35
2023-09-30T13:01:22.487Z,1.67
2023-09-30T13:02:25.665Z,2.20
2023-09-30T13:03:28.140Z,1.52
2023-09-30T13:04:30.500Z,1.80
2023-09-30T13:05:32.853Z,2.13
2023-09-30T13:06:36.646Z,2.08
2023-09-30T13:07:39.154Z,1.77
2023-09-30T13:08:41.414Z,2.30
2023-09-30T13:09:43.995Z,1.85
2023-09-30T13:10:46.828Z,2.05
2023-09-30T13:11:49.300Z,1.92
2023-09-30T13:12:51.737Z,2.47
2023-09-30T13:13:54.314Z,1.80
2023-09-30T13:14:57.304Z,1.52
2023-09-30T13:15:59.882Z,1.75
2023-09-30T13:17:02.636Z,2.10
2023-09-30T13:18:06.883Z,2.13
2023-09-30T13:19:09.359Z,1.90
2023-09-30T13:20:12.921Z,2.10
2023-09-30T13:21:15.710Z,1.83
2023-09-30T13:22:19.431Z,2.40
2023-09-30T13:23:22.125Z,2.30
2023-09-30T13:24:24.922Z,2.60
2023-09-30T13:25:27.907Z,2.60
2023-09-30T13:26:31.543Z,1.58
2023-09-30T13:27:34.194Z,2.90
2023-09-30T13:28:36.663Z,1.65
2023-09-30T13:29:39.365Z,1.90
2023-09-30T13:30:42.025Z,1.73
2023-09-30T13:31:45.863Z,2.00
2023-09-30T13:32:48.197Z,2.15
2023-09-30T13:33:50.684Z,2.13
2023-09-30T13:34:53.704Z,1.95
2023-09-30T13:35:56.923Z,2.00
2023-09-30T13:36:59.463Z,2.33
2023-09-30T13:38:02.059Z,1.70
2023-09-30T13:39:06.692Z,2.20
2023-09-30T13:40:13.229Z,2.15
2023-09-30T13:41:17.144Z,1.70
2023-09-30T13:42:19.382Z,2.10
2023-09-30T13:43:21.935Z,2.30
2023-09-30T13:44:24.380Z,2.25
2023-09-30T13:45:26.904Z,1.92
2023-09-30T13:46:30.488Z,2.70
2023-09-30T13:47:32.964Z,1.92
2023-09-30T13:48:35.397Z,2.15
2023-09-30T13:49:37.738Z,2.17
2023-09-30T13:50:40.233Z,2.63
2023-09-30T13:51:42.980Z,2.08
2023-09-30T13:52:45.200Z,2.55
2023-09-30T13:53:47.754Z,2.17
2023-09-30T13:54:50.284Z,2.08
2023-09-30T13:55:53.390Z,1.73
2023-09-30T13:56:55.713Z,1.90
2023-09-30T13:57:58.352Z,2.20
2023-09-30T13:59:01.435Z,2.05
2023-09-30T14:00:07.773Z,2.55
2023-09-30T14:01:12.233Z,2.25
2023-09-30T14:02:14.715Z,2.03
2023-09-30T14:03:17.209Z,2.55
2023-09-30T14:04:19.603Z,1.95
2023-09-30T14:05:22.091Z,2.00
2023-09-30T14:06:24.667Z,2.03
2023-09-30T14:07:27.204Z,2.00
2023-09-30T14:08:29.531Z,2.35
2023-09-30T14:09:36.377Z,1.67
2023-09-30T14:10:39.809Z,1.67
2023-09-30T14:11:43.171Z,2.20
2023-09-30T14:12:45.557Z,2.30